Time;durP1;ratioP1;P1;durP2;ratioP2;P2;SDS_P1;SDS_P2;PMS_P1;PMS_P2;Temp;Humidity;BMP_temperature;BMP_pressure;BME280_temperature;BME280_humidity;BME280_pressure;Samples;Min_cycle;Max_cycle;Signal;HPM_P1;HPM_P2
2022/03/18 00:02:23;;;;;;;;;13.25;10.75;;;;;10.33;77.67;103377.16;5012970;28;45951;-75
2022/03/18 00:04:51;;;;;;;;;11.25;9.00;;;;;10.23;77.13;103367.72;5012063;27;45479;-82
2022/03/18 00:07:18;;;;;;;;;12.75;9.00;;;;;10.30;77.55;103385.59;5013213;27;45312;-77
2022/03/18 00:09:44;;;;;;;;;14.50;10.50;;;;;10.25;76.77;103379.13;5015631;28;45543;-74
2022/03/18 00:12:11;;;;;;;;;11.50;8.00;;;;;10.18;77.40;103369.91;4991658;28;47784;-71
2022/03/18 00:14:39;;;;;;;;;11.00;8.50;;;;;10.22;77.60;103371.06;4996064;28;45240;-72
2022/03/18 00:17:04;;;;;;;;;8.00;7.00;;;;;10.16;77.45;103357.56;4994342;28;45467;-71
2022/03/18 00:19:31;;;;;;;;;11.75;8.75;;;;;10.16;77.39;103362.75;4978081;28;45534;-73
2022/03/18 00:22:01;;;;;;;;;9.25;9.25;;;;;10.16;77.65;103371.44;4994087;28;45410;-72
2022/03/18 00:24:33;;;;;;;;;12.75;10.25;;;;;10.14;77.38;103367.78;4995053;28;46090;-72
2022/03/18 00:27:00;;;;;;;;;11.50;11.00;;;;;10.14;77.40;103375.56;4995606;28;45219;-73
2022/03/18 00:29:26;;;;;;;;;8.50;8.25;;;;;10.07;77.68;103374.09;5000547;28;45729;-71
2022/03/18 00:31:55;;;;;;;;;7.75;7.75;;;;;10.10;77.33;103382.94;4995971;28;45488;-71
2022/03/18 00:34:21;;;;;;;;;11.50;10.25;;;;;10.11;78.30;103382.16;4994586;28;45427;-71
2022/03/18 00:36:47;;;;;;;;;8.00;7.00;;;;;10.08;78.10;103369.84;4994743;27;46724;-70
2022/03/18 00:39:12;;;;;;;;;12.25;8.00;;;;;10.11;78.12;103377.88;4997631;27;45597;-71
2022/03/18 00:41:38;;;;;;;;;9.50;9.50;;;;;10.01;78.63;103368.41;4994286;28;45424;-73
2022/03/18 00:44:04;;;;;;;;;13.50;9.25;;;;;10.07;78.27;103378.41;4996585;28;46668;-73
2022/03/18 00:46:30;;;;;;;;;12.75;9.25;;;;;10.09;78.48;103387.22;4994398;28;45410;-71
2022/03/18 00:54:24;;;;;;;;;9.50;8.25;;;;;10.00;79.02;103382.13;5013251;28;45852;-72
2022/03/18 00:56:49;;;;;;;;;7.25;7.25;;;;;9.99;79.30;103377.72;4995397;28;45367;-71
2022/03/18 00:59:15;;;;;;;;;10.00;9.25;;;;;9.95;79.51;103377.31;5020962;27;45675;-73
2022/03/18 01:01:41;;;;;;;;;9.25;8.00;;;;;9.97;79.31;103370.59;5048847;27;45982;-72
2022/03/18 01:04:07;;;;;;;;;8.50;8.25;;;;;9.96;79.66;103371.34;4994314;28;45458;-72
2022/03/18 01:06:33;;;;;;;;;11.25;9.75;;;;;9.93;80.17;103376.25;4994943;27;45436;-72
2022/03/18 01:08:58;;;;;;;;;9.75;9.25;;;;;9.98;80.62;103375.00;5006704;27;45488;-73
2022/03/18 01:11:24;;;;;;;;;10.00;10.00;;;;;9.98;80.73;103382.75;5061700;27;45977;-73
2022/03/18 01:13:50;;;;;;;;;12.50;10.00;;;;;9.87;80.65;103363.69;5015228;28;45399;-72
2022/03/18 01:16:16;;;;;;;;;14.00;11.75;;;;;9.95;81.44;103385.06;5013758;28;45412;-73
2022/03/18 01:18:41;;;;;;;;;10.50;10.00;;;;;9.95;81.61;103395.41;5015098;28;45486;-73
2022/03/18 01:21:07;;;;;;;;;14.25;12.75;;;;;9.95;81.63;103395.41;5012731;28;46019;-72
2022/03/18 01:23:33;;;;;;;;;17.50;11.75;;;;;9.94;81.96;103389.31;4998391;28;45193;-71
2022/03/18 01:25:58;;;;;;;;;14.00;10.50;;;;;9.88;82.46;103381.03;5009352;27;45242;-74
2022/03/18 01:28:26;;;;;;;;;11.00;9.50;;;;;9.95;82.60;103388.56;5013721;28;45293;-71
2022/03/18 01:30:52;;;;;;;;;16.00;12.75;;;;;9.94;82.81;103386.72;5026420;27;45468;-71
2022/03/18 01:33:17;;;;;;;;;11.50;10.50;;;;;9.99;82.63;103393.25;5044835;27;45447;-71
2022/03/18 01:35:43;;;;;;;;;13.50;12.00;;;;;10.01;82.92;103390.78;5098288;27;45456;-71
2022/03/18 01:38:09;;;;;;;;;9.75;8.25;;;;;9.96;82.93;103380.00;5058132;27;45501;-72
2022/03/18 01:40:35;;;;;;;;;12.50;12.50;;;;;9.98;82.95;103391.41;5077085;27;46269;-71
2022/03/18 01:43:00;;;;;;;;;13.75;12.25;;;;;9.97;83.77;103396.47;5063289;27;45456;-74
2022/03/18 01:45:26;;;;;;;;;16.75;15.50;;;;;9.99;84.74;103400.13;5059460;27;45326;-73
2022/03/18 01:47:52;;;;;;;;;18.00;15.50;;;;;9.99;84.73;103402.69;5007301;28;45543;-71
2022/03/18 01:50:18;;;;;;;;;18.00;16.00;;;;;9.98;84.29;103406.06;5012250;27;46991;-75
2022/03/18 01:52:45;;;;;;;;;16.25;15.50;;;;;9.94;85.25;103407.44;5098476;27;45267;-72
2022/03/18 01:55:13;;;;;;;;;17.25;16.00;;;;;9.93;85.38;103409.91;5073600;27;45837;-72
2022/03/18 01:57:39;;;;;;;;;16.00;14.25;;;;;9.90;85.19;103406.25;4994733;28;45524;-72
2022/03/18 02:00:06;;;;;;;;;15.25;14.50;;;;;9.92;86.09;103401.25;4993812;28;45803;-72
2022/03/18 02:02:32;;;;;;;;;16.00;15.00;;;;;9.92;85.81;103401.25;4994245;28;45860;-71
2022/03/18 02:04:58;;;;;;;;;17.25;13.75;;;;;9.84;86.31;103395.38;4994250;28;45216;-72
2022/03/18 02:07:23;;;;;;;;;17.00;13.50;;;;;9.85;86.80;103397.19;4995042;28;45345;-72
2022/03/18 02:09:49;;;;;;;;;15.50;15.00;;;;;9.85;87.15;103410.13;4994342;28;45235;-71
2022/03/18 02:12:15;;;;;;;;;17.00;15.50;;;;;9.90;87.39;103418.31;4994174;28;45204;-72
2022/03/18 02:14:45;;;;;;;;;17.50;16.50;;;;;9.90;87.44;103406.25;4994709;28;45715;-72
2022/03/18 02:17:13;;;;;;;;;17.75;15.75;;;;;9.96;87.96;103410.19;4994458;28;45322;-72
2022/03/18 02:19:40;;;;;;;;;19.25;17.00;;;;;9.93;87.39;103409.91;4994099;28;45333;-73
2022/03/18 02:22:15;;;;;;;;;22.25;17.00;;;;;9.89;87.88;103412.19;4994080;27;45837;-72
2022/03/18 02:24:44;;;;;;;;;20.75;16.75;;;;;9.89;88.22;103409.59;4974731;28;45411;-71
2022/03/18 02:27:10;;;;;;;;;18.00;16.00;;;;;9.88;88.12;103415.56;4974454;28;45346;-71
2022/03/18 02:29:36;;;;;;;;;17.75;17.75;;;;;9.82;88.35;103401.19;4974702;28;46061;-71
2022/03/18 02:32:03;;;;;;;;;22.50;16.50;;;;;9.80;88.72;103400.13;4973929;28;45334;-71
2022/03/18 02:34:29;;;;;;;;;18.50;17.00;;;;;9.80;89.25;103400.13;4974989;28;45248;-74
2022/03/18 02:36:55;;;;;;;;;16.75;15.50;;;;;9.77;89.05;103400.78;4975022;28;45488;-71
2022/03/18 02:39:20;;;;;;;;;18.00;14.50;;;;;9.74;88.89;103398.81;4974576;28;45888;-72
2022/03/18 02:41:47;;;;;;;;;18.75;16.00;;;;;9.67;88.91;103390.34;4974364;28;45355;-71
2022/03/18 02:44:13;;;;;;;;;22.00;15.50;;;;;9.64;88.68;103395.25;4987001;28;45509;-72
2022/03/18 02:46:39;;;;;;;;;17.75;16.00;;;;;9.62;89.10;103391.63;4994181;28;45449;-73
2022/03/18 02:49:05;;;;;;;;;18.00;16.00;;;;;9.61;89.72;103403.63;4993632;28;45425;-72
2022/03/18 02:51:32;;;;;;;;;19.50;16.25;;;;;9.53;89.53;103387.44;4993939;28;45796;-74
2022/03/18 02:53:59;;;;;;;;;15.75;15.50;;;;;9.56;89.41;103398.03;4993578;27;45442;-72
2022/03/18 02:56:25;;;;;;;;;18.75;16.00;;;;;9.56;89.85;103402.31;4994403;28;45589;-79
2022/03/18 02:58:51;;;;;;;;;22.00;20.00;;;;;9.59;89.70;103400.91;4994026;28;45432;-71
2022/03/18 03:01:17;;;;;;;;;19.50;17.25;;;;;9.62;90.27;103414.91;4993438;28;45982;-72
2022/03/18 03:03:43;;;;;;;;;23.50;19.00;;;;;9.60;90.71;103405.31;4993723;28;45322;-72
2022/03/18 03:08:53;;;;;;;;;22.50;22.25;;;;;9.54;91.46;103394.44;4993882;28;45733;-72
2022/03/18 03:11:21;;;;;;;;;25.25;20.00;;;;;9.59;92.21;103406.09;4993287;28;45408;-72
2022/03/18 03:13:46;;;;;;;;;23.75;20.75;;;;;9.53;92.17;103392.63;4993570;28;45462;-72
2022/03/18 03:16:12;;;;;;;;;22.75;19.75;;;;;9.53;91.96;103395.19;4993457;27;45454;-72
2022/03/18 03:18:37;;;;;;;;;28.00;23.00;;;;;9.58;92.22;103412.03;4993467;28;46043;-71
2022/03/18 03:21:03;;;;;;;;;22.00;20.00;;;;;9.58;91.84;103413.72;4993269;27;45308;-73
2022/03/18 03:23:29;;;;;;;;;26.50;21.00;;;;;9.53;91.88;103425.31;4993411;28;45458;-73
2022/03/18 03:25:56;;;;;;;;;21.75;18.75;;;;;9.48;92.79;103427.47;4993880;28;45506;-72
2022/03/18 03:28:22;;;;;;;;;28.50;20.75;;;;;9.46;92.71;103426.41;4992929;27;45393;-72
2022/03/18 03:30:49;;;;;;;;;20.25;17.00;;;;;9.47;92.47;103427.34;4993400;28;45910;-72
2022/03/18 03:33:15;;;;;;;;;23.00;21.75;;;;;9.33;91.43;103405.41;4993095;28;45429;-71
2022/03/18 03:35:41;;;;;;;;;25.00;19.75;;;;;9.38;91.56;103427.41;4993589;28;45494;-72
2022/03/18 03:38:10;;;;;;;;;25.75;23.00;;;;;9.36;91.31;103427.28;4992708;28;45425;-72
2022/03/18 03:40:37;;;;;;;;;22.00;21.00;;;;;9.34;91.44;103422.75;4993337;28;45816;-72
2022/03/18 03:43:02;;;;;;;;;21.00;17.25;;;;;9.36;91.50;103424.69;4994778;28;45453;-71
2022/03/18 03:45:28;;;;;;;;;21.25;19.25;;;;;9.38;91.17;103428.31;4996501;28;45508;-70
2022/03/18 03:47:54;;;;;;;;;27.50;21.50;;;;;9.35;91.12;103419.34;4996396;28;45315;-71
2022/03/18 03:50:19;;;;;;;;;24.25;20.75;;;;;9.34;90.96;103410.69;4995834;27;45460;-74
2022/03/18 03:52:45;;;;;;;;;22.50;20.50;;;;;9.34;90.78;103425.31;4996175;28;45417;-71
2022/03/18 03:55:13;;;;;;;;;27.50;20.75;;;;;9.29;91.22;103432.63;4995942;28;45363;-71
2022/03/18 03:57:40;;;;;;;;;26.25;23.25;;;;;9.23;91.45;103435.53;4995426;28;45398;-72
2022/03/18 04:00:09;;;;;;;;;24.75;23.50;;;;;9.21;91.50;103439.69;4995803;28;45821;-72
2022/03/18 04:02:37;;;;;;;;;25.00;22.00;;;;;9.17;91.82;103444.44;4996071;28;45409;-71
2022/03/18 04:05:12;;;;;;;;;25.50;23.00;;;;;9.11;91.69;103444.78;4996044;28;45244;-72
2022/03/18 04:07:39;;;;;;;;;24.25;20.75;;;;;9.02;92.14;103438.72;4995895;28;46168;-71
2022/03/18 04:10:06;;;;;;;;;24.25;20.50;;;;;9.01;92.34;103431.75;4995532;28;45394;-72
2022/03/18 04:12:35;;;;;;;;;25.50;22.00;;;;;9.02;92.31;103439.66;4995958;28;45443;-71
2022/03/18 04:15:05;;;;;;;;;25.50;20.75;;;;;8.95;92.53;103435.56;4996079;28;45380;-71
2022/03/18 04:17:42;;;;;;;;;24.50;22.00;;;;;9.02;92.57;103449.06;4978019;28;47959;-73
2022/03/18 04:20:33;;;;;;;;;24.75;21.50;;;;;9.02;92.23;103456.81;4995454;28;45285;-72
2022/03/18 04:22:59;;;;;;;;;20.50;20.25;;;;;9.03;91.73;103459.56;4992437;28;45543;-71
2022/03/18 04:25:25;;;;;;;;;24.25;22.75;;;;;8.99;91.69;103460.03;4996401;28;45501;-72
2022/03/18 04:27:50;;;;;;;;;25.50;21.50;;;;;8.97;91.18;103465.06;4978107;28;46367;-72
2022/03/18 04:30:16;;;;;;;;;21.75;18.25;;;;;8.97;92.13;103470.22;4995348;28;45371;-72
2022/03/18 04:32:43;;;;;;;;;21.75;19.00;;;;;8.97;91.75;103461.53;4995837;28;45743;-71
2022/03/18 04:35:10;;;;;;;;;23.00;20.00;;;;;9.02;91.37;103482.66;4995583;28;45446;-72
2022/03/18 04:37:36;;;;;;;;;23.25;19.25;;;;;8.95;90.87;103483.78;4995193;27;45455;-72
2022/03/18 04:40:01;;;;;;;;;21.75;18.75;;;;;8.95;90.76;103483.78;4977445;28;45460;-71
2022/03/18 04:42:27;;;;;;;;;22.25;19.00;;;;;8.93;90.64;103483.59;4977905;28;45335;-71
2022/03/18 04:44:53;;;;;;;;;21.25;20.75;;;;;8.92;90.38;103471.44;4996102;28;45378;-72
2022/03/18 04:47:18;;;;;;;;;19.75;18.75;;;;;8.88;91.01;103477.09;4995109;28;45927;-71
2022/03/18 04:49:44;;;;;;;;;21.25;18.50;;;;;8.94;92.47;103474.19;4995135;28;45291;-71
2022/03/18 04:52:10;;;;;;;;;21.00;20.25;;;;;9.08;90.71;103488.41;4995107;27;45220;-70
2022/03/18 04:54:35;;;;;;;;;21.50;19.00;;;;;9.10;89.47;103482.63;4976732;28;45613;-71
2022/03/18 04:57:16;;;;;;;;;19.50;18.00;;;;;9.11;89.40;103475.78;4994883;28;45920;-71
2022/03/18 04:59:43;;;;;;;;;19.50;19.00;;;;;9.13;88.98;103476.81;4995292;28;45409;-71
2022/03/18 05:02:12;;;;;;;;;21.25;18.50;;;;;9.18;87.48;103485.94;4995113;28;45236;-71
2022/03/18 05:04:38;;;;;;;;;20.75;17.00;;;;;9.18;87.19;103488.50;4995455;28;45534;-71
2022/03/18 05:07:08;;;;;;;;;20.50;16.50;;;;;9.16;87.02;103484.88;4994834;28;45455;-72
2022/03/18 05:09:34;;;;;;;;;17.50;15.25;;;;;9.12;86.32;103490.53;4977449;28;45879;-71
2022/03/18 05:11:59;;;;;;;;;17.50;17.25;;;;;9.12;85.49;103495.69;4995004;28;45279;-71
2022/03/18 05:14:25;;;;;;;;;18.50;18.50;;;;;9.08;85.86;103486.72;4977719;28;45660;-72
2022/03/18 05:16:52;;;;;;;;;22.00;18.50;;;;;9.07;85.91;103502.09;4995040;28;45306;-71
2022/03/18 05:19:18;;;;;;;;;19.50;16.75;;;;;8.96;85.66;103478.75;4994064;27;45395;-71
2022/03/18 05:21:44;;;;;;;;;21.50;18.25;;;;;9.00;85.30;103495.44;4994846;27;45414;-71
2022/03/18 05:24:09;;;;;;;;;25.75;21.25;;;;;8.98;84.76;103496.97;4994959;28;45474;-72
2022/03/18 05:26:36;;;;;;;;;21.25;17.00;;;;;8.99;85.05;103511.69;4994574;28;45686;-72
2022/03/18 05:29:03;;;;;;;;;18.75;17.25;;;;;9.00;85.00;103499.72;4994290;28;45275;-71
2022/03/18 05:31:28;;;;;;;;;21.00;20.25;;;;;9.03;84.43;103510.31;4994932;28;45327;-71
2022/03/18 05:33:54;;;;;;;;;15.50;14.75;;;;;9.02;84.39;103511.06;4977581;28;45659;-71
2022/03/18 05:36:21;;;;;;;;;19.25;17.25;;;;;9.03;83.96;103512.91;4994416;28;46004;-71
2022/03/18 05:38:46;;;;;;;;;20.75;19.25;;;;;9.00;83.69;103504.88;4994799;28;45271;-71
2022/03/18 05:41:13;;;;;;;;;19.50;14.75;;;;;8.96;83.05;103499.41;4994614;28;45350;-71
2022/03/18 05:43:39;;;;;;;;;19.25;16.25;;;;;9.01;83.11;103517.03;4995067;28;45430;-73
2022/03/18 05:46:05;;;;;;;;;24.00;20.50;;;;;9.00;82.64;103510.94;4994390;28;46394;-71
2022/03/18 05:48:31;;;;;;;;;15.25;13.25;;;;;8.95;82.27;103505.34;4994571;28;45330;-72
2022/03/18 05:50:56;;;;;;;;;18.75;16.75;;;;;8.94;82.00;103513.84;4993621;28;45331;-71
2022/03/18 05:53:22;;;;;;;;;19.25;17.00;;;;;8.94;82.19;103518.13;4994751;28;45323;-72
2022/03/18 05:58:32;;;;;;;;;20.25;15.00;;;;;8.96;81.26;103520.09;4994482;28;45274;-71
2022/03/18 06:00:58;;;;;;;;;21.25;18.25;;;;;8.96;81.36;103522.66;4994000;27;45245;-72
2022/03/18 06:03:24;;;;;;;;;19.75;17.00;;;;;8.98;81.04;103523.72;4994484;27;46630;-71
2022/03/18 06:05:50;;;;;;;;;18.00;13.75;;;;;8.94;80.64;103521.59;4974986;28;46219;-71
2022/03/18 06:13:44;;;;;;;;;20.50;18.75;;;;;8.90;80.99;103523.75;4994012;28;45379;-71
2022/03/18 06:16:09;;;;;;;;;19.25;18.50;;;;;8.90;80.81;103532.44;4993682;27;45863;-72
2022/03/18 06:18:35;;;;;;;;;27.00;18.00;;;;;8.88;80.83;103530.44;4993622;28;45272;-71
2022/03/18 06:21:00;;;;;;;;;20.75;17.50;;;;;8.79;80.64;103521.06;4993449;28;45185;-72
2022/03/18 06:23:26;;;;;;;;;21.25;18.25;;;;;8.91;80.71;103535.91;4994718;27;45230;-70
2022/03/18 06:25:52;;;;;;;;;25.25;20.75;;;;;8.90;80.76;103542.75;4975798;28;46186;-70
2022/03/18 06:28:18;;;;;;;;;25.00;21.25;;;;;8.92;80.71;103541.22;4975577;28;45469;-70
2022/03/18 06:30:44;;;;;;;;;25.25;20.25;;;;;8.92;80.77;103538.63;4993375;28;45844;-71
2022/03/18 06:33:10;;;;;;;;;19.00;19.00;;;;;8.93;79.83;103535.28;4993004;28;45413;-70
2022/03/18 06:35:39;;;;;;;;;19.75;18.25;;;;;8.95;80.26;103520.84;4993584;28;45413;-71
2022/03/18 06:38:04;;;;;;;;;13.25;12.50;;;;;8.94;80.23;103518.13;4975554;28;45499;-71
2022/03/18 06:40:30;;;;;;;;;20.50;18.25;;;;;9.00;80.20;103523.84;4992544;28;45548;-70
2022/03/18 06:42:56;;;;;;;;;20.50;18.00;;;;;9.02;80.05;103524.91;4975379;28;45320;-70
2022/03/18 06:45:21;;;;;;;;;19.50;17.75;;;;;9.00;79.71;103513.53;4993564;28;45633;-70
2022/03/18 06:47:48;;;;;;;;;21.75;20.50;;;;;9.04;79.51;103527.63;4993295;28;45256;-71
2022/03/18 06:50:13;;;;;;;;;21.50;19.75;;;;;9.02;79.30;103524.00;4993197;28;45485;-70
2022/03/18 06:52:39;;;;;;;;;27.50;20.50;;;;;9.04;79.48;103541.50;4993824;28;45525;-72
2022/03/18 06:55:05;;;;;;;;;23.25;21.25;;;;;9.03;79.04;103538.75;4992413;28;46090;-76
2022/03/18 06:57:31;;;;;;;;;18.25;18.25;;;;;9.00;79.16;103526.44;4994370;27;45421;-75
2022/03/18 06:59:56;;;;;;;;;24.75;21.00;;;;;8.98;78.79;103539.22;4994415;28;45446;-76
2022/03/18 07:02:23;;;;;;;;;21.50;21.25;;;;;8.91;79.14;103528.16;4994174;27;45315;-73
2022/03/18 07:04:50;;;;;;;;;24.75;20.25;;;;;8.88;79.25;103528.78;4993287;27;46110;-78
2022/03/18 07:07:16;;;;;;;;;19.25;18.50;;;;;8.89;79.19;103534.84;4993382;28;45925;-81
2022/03/18 07:09:42;;;;;;;;;16.00;15.50;;;;;8.90;79.43;103540.19;4993405;27;45303;-77
2022/03/18 07:12:09;;;;;;;;;24.25;20.75;;;;;8.80;79.81;103512.53;4992705;28;45473;-81
2022/03/18 07:14:36;;;;;;;;;20.25;18.75;;;;;8.85;79.62;103533.66;4975043;28;45602;-75
2022/03/18 07:19:47;;;;;;;;;19.50;19.50;;;;;8.89;79.57;103540.94;4992192;28;45468;-82
2022/03/18 07:22:13;;;;;;;;;22.00;18.50;;;;;8.65;79.52;103496.50;4994068;27;45254;-78
2022/03/18 07:24:39;;;;;;;;;27.75;22.50;;;;;8.78;79.45;103506.31;4994266;27;45403;-76
2022/03/18 07:27:05;;;;;;;;;23.00;19.00;;;;;8.96;79.37;103534.69;4992845;28;45288;-79
2022/03/18 07:29:32;;;;;;;;;18.75;17.75;;;;;9.06;79.24;103536.47;4993296;27;45213;-79
2022/03/18 07:32:02;;;;;;;;;24.00;19.75;;;;;8.95;78.72;103509.59;4993631;28;45579;-80
2022/03/18 07:34:28;;;;;;;;;22.00;18.75;;;;;9.12;78.67;103526.72;4976914;28;46913;-84
2022/03/18 07:36:55;;;;;;;;;22.25;19.50;;;;;9.17;78.44;103527.16;4998238;28;45383;-85
2022/03/18 07:39:20;;;;;;;;;23.75;20.00;;;;;9.18;78.24;103523.81;4978957;28;45221;-81
2022/03/18 07:41:46;;;;;;;;;21.75;18.75;;;;;9.10;77.82;103515.31;4994315;28;45244;-77
2022/03/18 07:44:12;;;;;;;;;26.50;21.50;;;;;9.14;78.04;103527.75;4991541;28;45348;-76
2022/03/18 07:46:38;;;;;;;;;21.25;20.00;;;;;9.17;77.89;103529.72;4993024;27;45473;-76
2022/03/18 07:49:03;;;;;;;;;28.00;25.25;;;;;9.25;78.17;103534.84;4998526;28;45887;-76
2022/03/18 07:51:32;;;;;;;;;23.00;20.50;;;;;9.23;78.07;103535.47;5014204;28;45368;-76
2022/03/18 07:53:58;;;;;;;;;25.75;20.25;;;;;9.27;77.92;103537.59;5012635;27;45404;-75
2022/03/18 07:56:24;;;;;;;;;20.25;20.25;;;;;9.31;77.87;103544.84;4995411;28;45361;-74
2022/03/18 07:58:50;;;;;;;;;23.50;22.00;;;;;9.30;77.97;103532.69;4992488;27;45369;-74
2022/03/18 08:01:15;;;;;;;;;23.50;20.75;;;;;9.41;78.17;103547.53;4997858;28;45549;-74
2022/03/18 08:03:48;;;;;;;;;23.00;21.75;;;;;9.47;78.12;103544.63;5003766;27;45938;-80
2022/03/18 08:06:19;;;;;;;;;25.25;21.00;;;;;9.53;77.84;103552.97;4992768;28;45466;-79
2022/03/18 08:08:45;;;;;;;;;22.25;19.50;;;;;9.54;76.91;103554.78;4995186;28;45339;-75
2022/03/18 08:11:11;;;;;;;;;22.00;20.00;;;;;9.57;77.38;103547.28;4990952;27;45425;-79
2022/03/18 08:13:38;;;;;;;;;20.25;19.75;;;;;9.66;76.92;103543.75;4992685;28;45344;-76
2022/03/18 08:16:04;;;;;;;;;20.25;18.00;;;;;9.69;76.57;103555.28;4992330;28;45931;-80
2022/03/18 08:18:30;;;;;;;;;20.25;17.25;;;;;9.73;77.96;103559.97;4993670;27;45553;-76
2022/03/18 08:20:56;;;;;;;;;21.00;19.25;;;;;9.72;76.55;103555.56;4980274;28;45565;-81
2022/03/18 08:23:23;;;;;;;;;20.50;15.75;;;;;9.74;76.13;103555.72;4995500;28;45437;-82
2022/03/18 08:25:49;;;;;;;;;20.00;17.00;;;;;9.86;76.00;103561.09;4990900;28;45463;-74
2022/03/18 08:28:15;;;;;;;;;22.00;18.50;;;;;9.89;76.82;103559.69;4992311;28;45382;-82
2022/03/18 08:30:41;;;;;;;;;24.25;20.00;;;;;9.90;76.31;103560.63;4995206;28;45495;-82
2022/03/18 08:33:07;;;;;;;;;20.00;17.50;;;;;9.91;75.75;103563.34;4995085;28;46132;-80
2022/03/18 08:35:36;;;;;;;;;28.50;20.25;;;;;9.97;75.42;103570.78;4995845;27;45198;-74
2022/03/18 08:38:04;;;;;;;;;22.00;20.50;;;;;9.99;75.30;103565.75;4996701;28;45323;-80
2022/03/18 08:40:34;;;;;;;;;27.75;18.75;;;;;10.02;74.56;103568.59;4996232;28;45407;-80
2022/03/18 08:43:03;;;;;;;;;22.25;19.50;;;;;9.99;74.43;103565.75;4995025;28;46628;-79
2022/03/18 08:45:29;;;;;;;;;19.00;18.50;;;;;10.02;74.45;103566.00;4995345;27;45462;-80
2022/03/18 08:47:54;;;;;;;;;20.25;18.00;;;;;10.05;73.99;103551.66;4995616;28;45289;-81
2022/03/18 08:50:21;;;;;;;;;20.25;19.75;;;;;10.03;73.31;103549.72;4997130;28;45602;-80
2022/03/18 08:52:49;;;;;;;;;26.25;20.50;;;;;10.13;73.01;103556.66;4996902;28;45281;-82
2022/03/18 08:55:16;;;;;;;;;22.50;17.75;;;;;10.21;72.01;103561.72;4995295;27;46101;-74
2022/03/18 08:57:42;;;;;;;;;21.00;19.25;;;;;10.21;72.28;103556.56;4995597;27;45461;-80
2022/03/18 09:00:10;;;;;;;;;24.75;19.50;;;;;10.31;73.11;103563.50;4995857;28;45355;-80
2022/03/18 09:02:39;;;;;;;;;22.00;21.50;;;;;10.29;71.34;103554.66;4996918;27;45900;-78
2022/03/18 09:05:07;;;;;;;;;21.25;17.00;;;;;10.34;71.15;103553.41;4994965;28;45346;-79
2022/03/18 09:07:34;;;;;;;;;19.50;15.00;;;;;10.44;70.03;103559.44;4996288;27;45489;-73
2022/03/18 09:10:00;;;;;;;;;16.00;14.00;;;;;10.48;69.05;103565.03;4998815;28;45459;-83
2022/03/18 09:12:26;;;;;;;;;18.50;17.00;;;;;10.51;68.92;103552.38;5027135;27;45453;-77
2022/03/18 09:14:52;;;;;;;;;21.75;16.50;;;;;10.51;68.43;103554.97;5002250;27;45580;-79
2022/03/18 09:17:19;;;;;;;;;15.75;13.00;;;;;10.64;66.82;103566.41;5011243;27;45266;-81
2022/03/18 09:19:45;;;;;;;;;15.25;12.50;;;;;10.65;66.86;103568.22;4991879;27;45619;-82
2022/03/18 09:22:11;;;;;;;;;16.75;14.75;;;;;10.67;66.63;103558.91;4984895;28;45515;-81
2022/03/18 09:24:37;;;;;;;;;12.75;12.75;;;;;10.74;65.85;103566.47;4994002;27;45389;-82
2022/03/18 09:27:04;;;;;;;;;16.50;14.50;;;;;10.77;64.57;103558.06;4995142;28;47322;-83
2022/03/18 09:29:30;;;;;;;;;14.50;14.25;;;;;10.80;64.36;103556.63;5002264;27;45409;-78
2022/03/18 09:31:56;;;;;;;;;14.25;12.50;;;;;10.76;63.89;103554.53;4990991;28;46962;-82
2022/03/18 09:34:24;;;;;;;;;16.25;13.75;;;;;10.86;63.95;103563.13;4992490;28;45652;-83
2022/03/18 09:36:58;;;;;;;;;15.00;13.50;;;;;10.93;63.64;103568.09;5006419;28;45363;-82
2022/03/18 09:39:26;;;;;;;;;12.00;11.00;;;;;10.94;63.44;103559.53;5010341;27;45398;-82
2022/03/18 09:41:53;;;;;;;;;16.75;15.25;;;;;10.98;62.23;103567.72;5060787;27;45496;-77
2022/03/18 09:44:20;;;;;;;;;12.00;9.50;;;;;11.00;62.24;103557.47;4997449;28;45427;-81
2022/03/18 09:46:47;;;;;;;;;18.25;12.00;;;;;11.10;61.70;103566.97;4983514;28;45417;-77
2022/03/18 09:49:14;;;;;;;;;13.50;12.00;;;;;11.11;59.99;103561.00;4992682;28;45568;-79
2022/03/18 09:51:48;;;;;;;;;13.25;11.50;;;;;11.19;60.85;103565.16;4994988;28;46191;-82
2022/03/18 09:54:15;;;;;;;;;10.50;10.00;;;;;11.23;60.32;103556.84;4993005;27;45400;-77
2022/03/18 09:56:43;;;;;;;;;12.25;10.50;;;;;11.16;57.84;103531.19;5005049;27;45469;-81
2022/03/18 09:59:09;;;;;;;;;12.50;12.25;;;;;11.34;57.11;103554.31;4997496;27;45730;-73
2022/03/18 10:01:35;;;;;;;;;12.75;10.25;;;;;11.34;56.72;103556.91;4996644;28;46103;-82
2022/03/18 10:04:12;;;;;;;;;12.75;9.25;;;;;11.38;57.22;103551.19;4994973;27;45453;-78
2022/03/18 10:06:41;;;;;;;;;10.25;10.00;;;;;11.42;56.28;103556.75;5000892;28;45354;-75
2022/03/18 10:09:07;;;;;;;;;12.50;9.00;;;;;11.44;55.24;103552.63;4998379;27;45327;-75
2022/03/18 10:11:36;;;;;;;;;11.50;7.50;;;;;11.52;53.53;103567.94;4978137;28;45588;-75
2022/03/18 10:14:06;;;;;;;;;11.50;9.50;;;;;11.53;54.42;103559.38;4977381;28;45531;-79
2022/03/18 10:16:40;;;;;;;;;9.75;7.00;;;;;11.59;54.01;103557.31;4993736;28;45267;-74
2022/03/18 10:19:11;;;;;;;;;8.75;8.50;;;;;11.62;53.28;103562.75;4993996;28;45449;-78
2022/03/18 10:21:57;;;;;;;;;7.00;6.00;;;;;11.67;52.94;103564.06;4995983;28;45408;-74
2022/03/18 10:24:30;;;;;;;;;9.25;8.25;;;;;11.72;51.62;103559.25;4993843;28;45377;-73
2022/03/18 10:27:13;;;;;;;;;9.00;7.25;;;;;11.76;51.10;103551.84;4993883;27;45375;-74
2022/03/18 10:29:57;;;;;;;;;8.50;6.00;;;;;11.77;51.18;103545.88;4994493;28;45529;-73
2022/03/18 10:32:24;;;;;;;;;12.75;9.25;;;;;11.84;49.83;103547.31;4992902;28;46356;-74
2022/03/18 10:37:44;;;;;;;;;8.25;6.50;;;;;11.93;46.80;103545.47;4993659;28;45572;-73
2022/03/18 10:40:11;;;;;;;;;8.50;7.25;;;;;11.91;47.80;103531.44;4993783;28;45475;-73
2022/03/18 10:42:37;;;;;;;;;12.75;10.50;;;;;11.95;47.78;103542.09;4976220;28;46915;-74
2022/03/18 10:45:03;;;;;;;;;11.75;7.75;;;;;11.99;47.60;103536.41;4992450;27;45884;-73
2022/03/18 10:47:37;;;;;;;;;11.00;8.25;;;;;12.04;46.93;103532.50;4993419;28;45422;-73
2022/03/18 10:50:11;;;;;;;;;8.25;8.00;;;;;12.11;45.79;103533.94;4993747;28;45453;-73
2022/03/18 10:52:49;;;;;;;;;9.75;7.00;;;;;12.12;45.53;103533.16;4992823;28;46086;-72
2022/03/18 10:55:24;;;;;;;;;9.75;8.50;;;;;12.14;45.17;103519.50;4993384;28;45300;-73
2022/03/18 10:57:59;;;;;;;;;11.25;8.00;;;;;12.16;44.63;103527.41;4993285;28;45387;-73
2022/03/18 11:00:29;;;;;;;;;12.00;8.00;;;;;12.19;44.01;103518.22;4994096;27;45500;-73
2022/03/18 11:02:59;;;;;;;;;8.50;6.50;;;;;12.23;43.66;103521.97;4993378;28;45550;-73
2022/03/18 11:05:29;;;;;;;;;6.75;5.50;;;;;12.26;43.56;103518.69;4993514;27;45232;-72
2022/03/18 11:07:55;;;;;;;;;8.25;6.50;;;;;12.26;42.74;103513.50;4993358;28;45307;-73
2022/03/18 11:13:08;;;;;;;;;12.00;9.50;;;;;12.33;43.26;103503.75;4993514;28;45346;-74
2022/03/18 11:15:40;;;;;;;;;9.75;7.75;;;;;12.44;42.72;103508.91;4993539;28;45699;-73
2022/03/18 11:18:11;;;;;;;;;9.25;6.25;;;;;12.47;42.24;103519.53;4975990;28;45429;-73
2022/03/18 11:20:42;;;;;;;;;7.00;5.00;;;;;12.51;42.63;103509.50;4994147;28;45274;-73
2022/03/18 11:23:16;;;;;;;;;11.00;8.00;;;;;12.54;42.14;103503.66;4992969;28;46140;-73
2022/03/18 11:25:46;;;;;;;;;8.00;8.00;;;;;12.59;41.46;103510.09;4993735;28;45691;-74
2022/03/18 11:28:18;;;;;;;;;6.00;6.00;;;;;12.62;41.05;103510.34;4992886;28;45311;-73
2022/03/18 11:30:45;;;;;;;;;7.50;7.50;;;;;12.68;41.19;103502.16;4976161;28;45358;-73
2022/03/18 11:33:10;;;;;;;;;4.25;4.00;;;;;12.71;40.94;103512.78;4992236;27;46138;-73
2022/03/18 11:35:49;;;;;;;;;6.00;6.00;;;;;12.73;39.93;103495.63;4991741;28;45612;-74
2022/03/18 11:38:23;;;;;;;;;8.75;8.50;;;;;12.81;39.83;103498.81;4991361;28;45438;-72
2022/03/18 11:40:53;;;;;;;;;6.75;6.00;;;;;12.81;40.36;103491.00;4978962;28;45494;-79
2022/03/18 11:43:47;;;;;;;;;9.25;8.75;;;;;12.88;41.78;103501.13;4992843;28;46300;-78